sensor_id;sensor_type;location;lat;lon;timestamp;P1;durP1;ratioP1;P2;durP2;ratioP2
28170;SDS011;15458;53.346;-1.688;2023-07-09T00:00:48;5.05;;;2.33;;
28170;SDS011;15458;53.346;-1.688;2023-07-09T00:03:15;4.65;;;2.38;;
28170;SDS011;15458;53.346;-1.688;2023-07-09T00:05:42;5.18;;;2.08;;
28170;SDS011;15458;53.346;-1.688;2023-07-09T00:10:45;5.03;;;2.45;;
28170;SDS011;15458;53.346;-1.688;2023-07-09T00:13:10;2.97;;;2.15;;
28170;SDS011;15458;53.346;-1.688;2023-07-09T00:15:36;3.20;;;2.33;;
28170;SDS011;15458;53.346;-1.688;2023-07-09T00:18:02;4.15;;;2.30;;
28170;SDS011;15458;53.346;-1.688;2023-07-09T00:20:28;4.95;;;2.13;;
28170;SDS011;15458;53.346;-1.688;2023-07-09T00:22:53;6.20;;;2.28;;
28170;SDS011;15458;53.346;-1.688;2023-07-09T00:25:19;3.20;;;2.00;;
28170;SDS011;15458;53.346;-1.688;2023-07-09T00:27:45;7.13;;;2.28;;
28170;SDS011;15458;53.346;-1.688;2023-07-09T00:30:18;3.83;;;2.10;;
28170;SDS011;15458;53.346;-1.688;2023-07-09T00:32:49;3.03;;;2.28;;
28170;SDS011;15458;53.346;-1.688;2023-07-09T00:35:17;4.00;;;2.47;;
28170;SDS011;15458;53.346;-1.688;2023-07-09T00:37:44;3.20;;;2.47;;
28170;SDS011;15458;53.346;-1.688;2023-07-09T00:40:21;5.38;;;2.28;;
28170;SDS011;15458;53.346;-1.688;2023-07-09T00:42:48;5.45;;;2.70;;
28170;SDS011;15458;53.346;-1.688;2023-07-09T00:45:21;5.53;;;3.15;;
28170;SDS011;15458;53.346;-1.688;2023-07-09T00:50:23;8.75;;;2.78;;
28170;SDS011;15458;53.346;-1.688;2023-07-09T00:52:58;5.97;;;2.78;;
28170;SDS011;15458;53.346;-1.688;2023-07-09T00:55:31;5.25;;;2.80;;
28170;SDS011;15458;53.346;-1.688;2023-07-09T00:58:02;6.28;;;2.22;;
28170;SDS011;15458;53.346;-1.688;2023-07-09T01:00:32;4.35;;;2.63;;
28170;SDS011;15458;53.346;-1.688;2023-07-09T01:03:11;8.40;;;3.10;;
28170;SDS011;15458;53.346;-1.688;2023-07-09T01:05:59;3.47;;;2.50;;
28170;SDS011;15458;53.346;-1.688;2023-07-09T01:08:27;9.70;;;3.10;;
28170;SDS011;15458;53.346;-1.688;2023-07-09T01:10:57;4.40;;;3.10;;
28170;SDS011;15458;53.346;-1.688;2023-07-09T01:13:26;5.07;;;3.45;;
28170;SDS011;15458;53.346;-1.688;2023-07-09T01:15:54;6.60;;;3.50;;
28170;SDS011;15458;53.346;-1.688;2023-07-09T01:18:20;5.95;;;3.45;;
28170;SDS011;15458;53.346;-1.688;2023-07-09T01:20:46;5.55;;;3.17;;
28170;SDS011;15458;53.346;-1.688;2023-07-09T01:23:12;5.75;;;3.88;;
28170;SDS011;15458;53.346;-1.688;2023-07-09T01:25:40;6.78;;;4.18;;
28170;SDS011;15458;53.346;-1.688;2023-07-09T01:28:17;7.97;;;3.90;;
28170;SDS011;15458;53.346;-1.688;2023-07-09T01:30:45;6.15;;;3.70;;
28170;SDS011;15458;53.346;-1.688;2023-07-09T01:33:11;6.28;;;3.50;;
28170;SDS011;15458;53.346;-1.688;2023-07-09T01:35:37;8.15;;;3.70;;
28170;SDS011;15458;53.346;-1.688;2023-07-09T01:38:06;7.05;;;3.85;;
28170;SDS011;15458;53.346;-1.688;2023-07-09T01:40:32;7.70;;;3.90;;
28170;SDS011;15458;53.346;-1.688;2023-07-09T01:42:58;5.63;;;3.70;;
28170;SDS011;15458;53.346;-1.688;2023-07-09T01:45:25;7.78;;;3.63;;
28170;SDS011;15458;53.346;-1.688;2023-07-09T01:47:51;7.13;;;4.30;;
28170;SDS011;15458;53.346;-1.688;2023-07-09T01:50:18;7.80;;;3.95;;
28170;SDS011;15458;53.346;-1.688;2023-07-09T01:52:44;9.18;;;4.25;;
28170;SDS011;15458;53.346;-1.688;2023-07-09T01:55:11;8.18;;;4.07;;
28170;SDS011;15458;53.346;-1.688;2023-07-09T01:57:41;6.70;;;4.45;;
28170;SDS011;15458;53.346;-1.688;2023-07-09T02:00:10;12.43;;;5.13;;
28170;SDS011;15458;53.346;-1.688;2023-07-09T02:02:38;20.67;;;4.57;;
28170;SDS011;15458;53.346;-1.688;2023-07-09T02:05:08;9.52;;;4.57;;
28170;SDS011;15458;53.346;-1.688;2023-07-09T02:07:35;7.80;;;4.28;;
28170;SDS011;15458;53.346;-1.688;2023-07-09T02:10:01;8.90;;;4.82;;
28170;SDS011;15458;53.346;-1.688;2023-07-09T02:12:27;8.82;;;4.70;;
28170;SDS011;15458;53.346;-1.688;2023-07-09T02:14:52;10.82;;;4.93;;
28170;SDS011;15458;53.346;-1.688;2023-07-09T02:17:18;10.95;;;4.90;;
28170;SDS011;15458;53.346;-1.688;2023-07-09T02:19:44;6.25;;;4.93;;
28170;SDS011;15458;53.346;-1.688;2023-07-09T02:22:10;10.35;;;4.90;;
28170;SDS011;15458;53.346;-1.688;2023-07-09T02:24:36;12.45;;;6.85;;
28170;SDS011;15458;53.346;-1.688;2023-07-09T02:27:03;12.38;;;6.53;;
28170;SDS011;15458;53.346;-1.688;2023-07-09T02:29:30;13.55;;;6.10;;
28170;SDS011;15458;53.346;-1.688;2023-07-09T02:31:57;14.15;;;5.43;;
28170;SDS011;15458;53.346;-1.688;2023-07-09T02:34:27;10.77;;;5.95;;
28170;SDS011;15458;53.346;-1.688;2023-07-09T02:36:55;12.15;;;6.13;;
28170;SDS011;15458;53.346;-1.688;2023-07-09T02:39:22;11.40;;;6.38;;
28170;SDS011;15458;53.346;-1.688;2023-07-09T02:41:49;12.02;;;6.28;;
28170;SDS011;15458;53.346;-1.688;2023-07-09T02:44:15;11.45;;;6.82;;
28170;SDS011;15458;53.346;-1.688;2023-07-09T02:46:42;13.27;;;5.72;;
28170;SDS011;15458;53.346;-1.688;2023-07-09T02:49:09;14.82;;;6.60;;
28170;SDS011;15458;53.346;-1.688;2023-07-09T02:51:37;14.00;;;6.80;;
28170;SDS011;15458;53.346;-1.688;2023-07-09T02:54:03;14.40;;;7.10;;
28170;SDS011;15458;53.346;-1.688;2023-07-09T02:56:29;14.27;;;7.45;;
28170;SDS011;15458;53.346;-1.688;2023-07-09T02:58:55;15.88;;;8.73;;
28170;SDS011;15458;53.346;-1.688;2023-07-09T03:01:21;16.45;;;8.23;;
28170;SDS011;15458;53.346;-1.688;2023-07-09T03:03:53;13.25;;;6.13;;
28170;SDS011;15458;53.346;-1.688;2023-07-09T03:06:20;21.90;;;11.40;;
28170;SDS011;15458;53.346;-1.688;2023-07-09T03:08:46;26.55;;;11.98;;
28170;SDS011;15458;53.346;-1.688;2023-07-09T03:11:13;21.52;;;11.13;;
28170;SDS011;15458;53.346;-1.688;2023-07-09T03:13:40;26.38;;;12.95;;
28170;SDS011;15458;53.346;-1.688;2023-07-09T03:16:06;31.88;;;13.38;;
28170;SDS011;15458;53.346;-1.688;2023-07-09T03:18:32;26.27;;;12.27;;
28170;SDS011;15458;53.346;-1.688;2023-07-09T03:20:57;30.02;;;13.55;;
28170;SDS011;15458;53.346;-1.688;2023-07-09T03:23:23;30.50;;;12.75;;
28170;SDS011;15458;53.346;-1.688;2023-07-09T03:25:49;21.90;;;11.32;;
28170;SDS011;15458;53.346;-1.688;2023-07-09T03:28:15;27.88;;;12.57;;
28170;SDS011;15458;53.346;-1.688;2023-07-09T03:30:41;26.58;;;13.23;;
28170;SDS011;15458;53.346;-1.688;2023-07-09T03:33:09;29.10;;;13.15;;
28170;SDS011;15458;53.346;-1.688;2023-07-09T03:35:35;22.05;;;11.50;;
28170;SDS011;15458;53.346;-1.688;2023-07-09T03:38:01;25.75;;;11.65;;
28170;SDS011;15458;53.346;-1.688;2023-07-09T03:40:27;23.13;;;11.20;;
28170;SDS011;15458;53.346;-1.688;2023-07-09T03:42:53;23.10;;;11.63;;
28170;SDS011;15458;53.346;-1.688;2023-07-09T03:45:18;26.45;;;11.10;;
28170;SDS011;15458;53.346;-1.688;2023-07-09T03:47:44;23.33;;;11.70;;
28170;SDS011;15458;53.346;-1.688;2023-07-09T03:50:13;26.55;;;11.82;;
28170;SDS011;15458;53.346;-1.688;2023-07-09T03:52:38;31.42;;;12.75;;
28170;SDS011;15458;53.346;-1.688;2023-07-09T03:55:04;30.40;;;13.13;;
28170;SDS011;15458;53.346;-1.688;2023-07-09T03:57:30;27.13;;;12.77;;
28170;SDS011;15458;53.346;-1.688;2023-07-09T03:59:56;30.02;;;12.88;;
28170;SDS011;15458;53.346;-1.688;2023-07-09T04:02:22;28.70;;;12.43;;
28170;SDS011;15458;53.346;-1.688;2023-07-09T04:04:48;30.88;;;13.52;;
28170;SDS011;15458;53.346;-1.688;2023-07-09T04:07:14;20.58;;;10.25;;
28170;SDS011;15458;53.346;-1.688;2023-07-09T04:09:40;28.08;;;12.55;;
28170;SDS011;15458;53.346;-1.688;2023-07-09T04:12:06;27.08;;;13.25;;
28170;SDS011;15458;53.346;-1.688;2023-07-09T04:14:33;27.45;;;12.50;;
28170;SDS011;15458;53.346;-1.688;2023-07-09T04:16:59;28.95;;;13.52;;
28170;SDS011;15458;53.346;-1.688;2023-07-09T04:19:25;31.27;;;12.25;;
28170;SDS011;15458;53.346;-1.688;2023-07-09T04:21:51;28.92;;;12.30;;
28170;SDS011;15458;53.346;-1.688;2023-07-09T04:24:17;25.88;;;11.57;;
28170;SDS011;15458;53.346;-1.688;2023-07-09T04:26:44;27.58;;;11.15;;
28170;SDS011;15458;53.346;-1.688;2023-07-09T04:29:10;20.23;;;9.90;;
28170;SDS011;15458;53.346;-1.688;2023-07-09T04:31:36;24.33;;;9.90;;
28170;SDS011;15458;53.346;-1.688;2023-07-09T04:34:03;20.10;;;10.02;;
28170;SDS011;15458;53.346;-1.688;2023-07-09T04:36:29;20.98;;;8.73;;
28170;SDS011;15458;53.346;-1.688;2023-07-09T04:38:55;27.65;;;8.50;;
28170;SDS011;15458;53.346;-1.688;2023-07-09T04:41:20;25.00;;;8.95;;
28170;SDS011;15458;53.346;-1.688;2023-07-09T04:43:46;22.50;;;8.57;;
28170;SDS011;15458;53.346;-1.688;2023-07-09T04:46:12;20.83;;;8.38;;
28170;SDS011;15458;53.346;-1.688;2023-07-09T04:48:37;27.38;;;8.80;;
28170;SDS011;15458;53.346;-1.688;2023-07-09T04:51:03;33.22;;;10.05;;
28170;SDS011;15458;53.346;-1.688;2023-07-09T04:53:29;22.40;;;8.38;;
28170;SDS011;15458;53.346;-1.688;2023-07-09T04:55:55;26.25;;;8.95;;
28170;SDS011;15458;53.346;-1.688;2023-07-09T04:58:23;32.00;;;10.55;;
28170;SDS011;15458;53.346;-1.688;2023-07-09T05:00:48;28.83;;;9.32;;
28170;SDS011;15458;53.346;-1.688;2023-07-09T05:03:16;24.77;;;9.82;;
28170;SDS011;15458;53.346;-1.688;2023-07-09T05:05:43;20.80;;;9.80;;
28170;SDS011;15458;53.346;-1.688;2023-07-09T05:08:10;25.48;;;10.05;;
28170;SDS011;15458;53.346;-1.688;2023-07-09T05:10:43;25.33;;;9.60;;
28170;SDS011;15458;53.346;-1.688;2023-07-09T05:13:09;26.05;;;8.63;;
28170;SDS011;15458;53.346;-1.688;2023-07-09T05:15:39;30.92;;;9.75;;
28170;SDS011;15458;53.346;-1.688;2023-07-09T05:18:08;26.20;;;9.15;;
28170;SDS011;15458;53.346;-1.688;2023-07-09T05:20:34;24.83;;;8.40;;
28170;SDS011;15458;53.346;-1.688;2023-07-09T05:23:00;29.15;;;8.43;;
28170;SDS011;15458;53.346;-1.688;2023-07-09T05:25:26;25.90;;;8.85;;
28170;SDS011;15458;53.346;-1.688;2023-07-09T05:27:52;20.92;;;8.27;;
28170;SDS011;15458;53.346;-1.688;2023-07-09T05:30:18;23.27;;;8.32;;
28170;SDS011;15458;53.346;-1.688;2023-07-09T05:32:44;22.73;;;8.30;;
28170;SDS011;15458;53.346;-1.688;2023-07-09T05:35:10;22.25;;;8.25;;
28170;SDS011;15458;53.346;-1.688;2023-07-09T05:37:36;26.80;;;8.57;;
28170;SDS011;15458;53.346;-1.688;2023-07-09T05:40:03;33.30;;;9.18;;
28170;SDS011;15458;53.346;-1.688;2023-07-09T05:42:33;27.25;;;9.45;;
28170;SDS011;15458;53.346;-1.688;2023-07-09T05:44:59;19.85;;;8.70;;
28170;SDS011;15458;53.346;-1.688;2023-07-09T05:47:25;25.02;;;8.13;;
28170;SDS011;15458;53.346;-1.688;2023-07-09T05:49:51;23.80;;;8.05;;
28170;SDS011;15458;53.346;-1.688;2023-07-09T05:52:17;20.48;;;7.60;;
28170;SDS011;15458;53.346;-1.688;2023-07-09T05:54:45;26.10;;;8.07;;
28170;SDS011;15458;53.346;-1.688;2023-07-09T05:57:11;23.75;;;8.57;;
28170;SDS011;15458;53.346;-1.688;2023-07-09T05:59:37;21.52;;;8.88;;
28170;SDS011;15458;53.346;-1.688;2023-07-09T06:02:15;20.10;;;8.60;;
28170;SDS011;15458;53.346;-1.688;2023-07-09T06:04:43;26.45;;;8.77;;
28170;SDS011;15458;53.346;-1.688;2023-07-09T06:07:16;27.83;;;8.73;;
28170;SDS011;15458;53.346;-1.688;2023-07-09T06:09:45;24.55;;;8.50;;
28170;SDS011;15458;53.346;-1.688;2023-07-09T06:12:13;28.95;;;9.25;;
28170;SDS011;15458;53.346;-1.688;2023-07-09T06:14:39;28.17;;;8.57;;
28170;SDS011;15458;53.346;-1.688;2023-07-09T06:17:08;32.30;;;8.15;;
28170;SDS011;15458;53.346;-1.688;2023-07-09T06:19:34;31.15;;;8.93;;
28170;SDS011;15458;53.346;-1.688;2023-07-09T06:22:00;21.55;;;8.98;;
28170;SDS011;15458;53.346;-1.688;2023-07-09T06:24:26;30.20;;;9.30;;
28170;SDS011;15458;53.346;-1.688;2023-07-09T06:26:52;21.50;;;8.88;;
28170;SDS011;15458;53.346;-1.688;2023-07-09T06:29:18;32.42;;;10.27;;
28170;SDS011;15458;53.346;-1.688;2023-07-09T06:31:43;26.50;;;9.82;;
28170;SDS011;15458;53.346;-1.688;2023-07-09T06:34:09;25.92;;;10.65;;
28170;SDS011;15458;53.346;-1.688;2023-07-09T06:36:35;33.35;;;9.95;;
28170;SDS011;15458;53.346;-1.688;2023-07-09T06:39:01;28.00;;;9.90;;
28170;SDS011;15458;53.346;-1.688;2023-07-09T06:41:28;33.95;;;9.38;;
28170;SDS011;15458;53.346;-1.688;2023-07-09T06:43:54;23.40;;;9.02;;
28170;SDS011;15458;53.346;-1.688;2023-07-09T06:46:20;24.83;;;8.73;;
28170;SDS011;15458;53.346;-1.688;2023-07-09T06:48:46;30.75;;;9.30;;
28170;SDS011;15458;53.346;-1.688;2023-07-09T06:51:12;21.65;;;8.75;;
28170;SDS011;15458;53.346;-1.688;2023-07-09T06:53:38;22.50;;;9.02;;
28170;SDS011;15458;53.346;-1.688;2023-07-09T06:56:04;31.25;;;8.90;;
28170;SDS011;15458;53.346;-1.688;2023-07-09T06:58:33;20.45;;;8.25;;
28170;SDS011;15458;53.346;-1.688;2023-07-09T07:01:01;21.60;;;9.02;;
28170;SDS011;15458;53.346;-1.688;2023-07-09T07:03:29;21.65;;;8.93;;
28170;SDS011;15458;53.346;-1.688;2023-07-09T07:05:55;22.95;;;8.38;;
28170;SDS011;15458;53.346;-1.688;2023-07-09T07:08:23;25.67;;;9.95;;
28170;SDS011;15458;53.346;-1.688;2023-07-09T07:10:50;27.05;;;8.43;;
28170;SDS011;15458;53.346;-1.688;2023-07-09T07:13:27;20.08;;;7.55;;
28170;SDS011;15458;53.346;-1.688;2023-07-09T07:15:56;18.40;;;7.20;;
28170;SDS011;15458;53.346;-1.688;2023-07-09T07:18:22;23.10;;;8.15;;
28170;SDS011;15458;53.346;-1.688;2023-07-09T07:20:48;21.55;;;7.30;;
28170;SDS011;15458;53.346;-1.688;2023-07-09T07:23:14;20.38;;;6.85;;
28170;SDS011;15458;53.346;-1.688;2023-07-09T07:25:41;23.83;;;7.82;;
28170;SDS011;15458;53.346;-1.688;2023-07-09T07:28:07;22.30;;;7.57;;
28170;SDS011;15458;53.346;-1.688;2023-07-09T07:30:34;15.75;;;6.40;;
28170;SDS011;15458;53.346;-1.688;2023-07-09T07:32:59;21.73;;;6.18;;
28170;SDS011;15458;53.346;-1.688;2023-07-09T07:35:25;15.32;;;5.90;;
28170;SDS011;15458;53.346;-1.688;2023-07-09T07:37:51;16.13;;;5.55;;
28170;SDS011;15458;53.346;-1.688;2023-07-09T07:40:16;18.83;;;7.07;;
28170;SDS011;15458;53.346;-1.688;2023-07-09T07:42:42;17.50;;;6.38;;
28170;SDS011;15458;53.346;-1.688;2023-07-09T07:45:08;24.67;;;6.40;;
28170;SDS011;15458;53.346;-1.688;2023-07-09T07:47:41;20.25;;;5.72;;
28170;SDS011;15458;53.346;-1.688;2023-07-09T07:50:08;16.27;;;5.47;;
28170;SDS011;15458;53.346;-1.688;2023-07-09T07:52:35;20.00;;;6.53;;
28170;SDS011;15458;53.346;-1.688;2023-07-09T07:55:03;12.50;;;5.15;;
28170;SDS011;15458;53.346;-1.688;2023-07-09T07:57:30;20.40;;;5.55;;
28170;SDS011;15458;53.346;-1.688;2023-07-09T07:59:56;20.95;;;5.47;;
28170;SDS011;15458;53.346;-1.688;2023-07-09T08:02:22;18.83;;;5.50;;
28170;SDS011;15458;53.346;-1.688;2023-07-09T08:04:49;16.33;;;6.40;;
28170;SDS011;15458;53.346;-1.688;2023-07-09T08:07:16;22.50;;;5.70;;
28170;SDS011;15458;53.346;-1.688;2023-07-09T08:09:43;19.70;;;5.78;;
28170;SDS011;15458;53.346;-1.688;2023-07-09T08:12:10;17.58;;;6.55;;
28170;SDS011;15458;53.346;-1.688;2023-07-09T08:14:37;20.73;;;6.28;;
28170;SDS011;15458;53.346;-1.688;2023-07-09T08:17:04;15.65;;;5.40;;
28170;SDS011;15458;53.346;-1.688;2023-07-09T08:19:30;19.13;;;5.75;;
28170;SDS011;15458;53.346;-1.688;2023-07-09T08:21:56;21.75;;;5.97;;
28170;SDS011;15458;53.346;-1.688;2023-07-09T08:24:22;12.98;;;6.15;;
28170;SDS011;15458;53.346;-1.688;2023-07-09T08:26:48;16.17;;;5.10;;
28170;SDS011;15458;53.346;-1.688;2023-07-09T08:29:14;19.27;;;6.32;;
28170;SDS011;15458;53.346;-1.688;2023-07-09T08:31:39;16.98;;;4.80;;
28170;SDS011;15458;53.346;-1.688;2023-07-09T08:34:07;15.93;;;5.20;;
28170;SDS011;15458;53.346;-1.688;2023-07-09T08:36:33;16.80;;;6.32;;
28170;SDS011;15458;53.346;-1.688;2023-07-09T08:39:02;15.85;;;4.60;;
28170;SDS011;15458;53.346;-1.688;2023-07-09T08:41:48;17.45;;;5.75;;
28170;SDS011;15458;53.346;-1.688;2023-07-09T08:50:15;13.85;;;6.90;;
28170;SDS011;15458;53.346;-1.688;2023-07-09T08:52:51;21.58;;;6.70;;
28170;SDS011;15458;53.346;-1.688;2023-07-09T08:55:19;18.02;;;5.80;;
28170;SDS011;15458;53.346;-1.688;2023-07-09T08:57:47;18.65;;;5.90;;
28170;SDS011;15458;53.346;-1.688;2023-07-09T09:00:46;21.25;;;6.35;;
28170;SDS011;15458;53.346;-1.688;2023-07-09T09:05:54;16.92;;;6.30;;
28170;SDS011;15458;53.346;-1.688;2023-07-09T09:11:27;17.42;;;5.90;;
28170;SDS011;15458;53.346;-1.688;2023-07-09T09:14:06;12.77;;;5.38;;
28170;SDS011;15458;53.346;-1.688;2023-07-09T09:16:42;14.15;;;4.28;;
28170;SDS011;15458;53.346;-1.688;2023-07-09T09:19:22;15.55;;;4.95;;
28170;SDS011;15458;53.346;-1.688;2023-07-09T09:24:23;12.40;;;4.07;;
28170;SDS011;15458;53.346;-1.688;2023-07-09T09:26:57;12.88;;;4.35;;
28170;SDS011;15458;53.346;-1.688;2023-07-09T09:29:24;10.10;;;2.90;;
28170;SDS011;15458;53.346;-1.688;2023-07-09T09:31:51;10.65;;;2.60;;
28170;SDS011;15458;53.346;-1.688;2023-07-09T09:34:24;13.02;;;3.17;;
28170;SDS011;15458;53.346;-1.688;2023-07-09T09:36:55;13.30;;;2.60;;
28170;SDS011;15458;53.346;-1.688;2023-07-09T09:39:23;12.98;;;3.17;;
28170;SDS011;15458;53.346;-1.688;2023-07-09T09:41:57;11.02;;;2.30;;
28170;SDS011;15458;53.346;-1.688;2023-07-09T09:44:27;10.07;;;2.42;;
28170;SDS011;15458;53.346;-1.688;2023-07-09T09:46:58;13.65;;;2.38;;
28170;SDS011;15458;53.346;-1.688;2023-07-09T09:49:24;8.85;;;2.03;;
28170;SDS011;15458;53.346;-1.688;2023-07-09T09:51:50;8.35;;;2.10;;
28170;SDS011;15458;53.346;-1.688;2023-07-09T09:54:17;8.93;;;2.38;;
28170;SDS011;15458;53.346;-1.688;2023-07-09T09:56:47;12.48;;;2.35;;
28170;SDS011;15458;53.346;-1.688;2023-07-09T09:59:20;14.77;;;2.55;;
28170;SDS011;15458;53.346;-1.688;2023-07-09T10:01:57;13.85;;;1.83;;
28170;SDS011;15458;53.346;-1.688;2023-07-09T10:04:24;10.82;;;2.17;;
28170;SDS011;15458;53.346;-1.688;2023-07-09T10:06:55;6.88;;;1.65;;
28170;SDS011;15458;53.346;-1.688;2023-07-09T10:12:24;14.50;;;1.70;;
28170;SDS011;15458;53.346;-1.688;2023-07-09T10:18:07;8.65;;;1.98;;
28170;SDS011;15458;53.346;-1.688;2023-07-09T10:20:36;7.32;;;2.28;;
28170;SDS011;15458;53.346;-1.688;2023-07-09T10:28:27;8.43;;;2.05;;
28170;SDS011;15458;53.346;-1.688;2023-07-09T10:36:48;11.50;;;2.55;;
28170;SDS011;15458;53.346;-1.688;2023-07-09T10:39:26;11.80;;;1.77;;
28170;SDS011;15458;53.346;-1.688;2023-07-09T10:44:33;10.85;;;1.90;;
28170;SDS011;15458;53.346;-1.688;2023-07-09T10:47:03;9.45;;;1.90;;
28170;SDS011;15458;53.346;-1.688;2023-07-09T10:49:42;10.13;;;2.33;;
28170;SDS011;15458;53.346;-1.688;2023-07-09T10:55:20;5.93;;;1.67;;
28170;SDS011;15458;53.346;-1.688;2023-07-09T10:58:19;9.65;;;1.88;;
28170;SDS011;15458;53.346;-1.688;2023-07-09T11:00:59;5.85;;;1.30;;
28170;SDS011;15458;53.346;-1.688;2023-07-09T11:05:53;9.25;;;1.60;;
28170;SDS011;15458;53.346;-1.688;2023-07-09T11:08:23;8.98;;;2.03;;
28170;SDS011;15458;53.346;-1.688;2023-07-09T11:11:06;10.35;;;1.80;;
28170;SDS011;15458;53.346;-1.688;2023-07-09T11:13:43;12.75;;;3.38;;
28170;SDS011;15458;53.346;-1.688;2023-07-09T11:16:19;8.85;;;1.70;;
28170;SDS011;15458;53.346;-1.688;2023-07-09T11:18:55;5.38;;;1.70;;
28170;SDS011;15458;53.346;-1.688;2023-07-09T11:21:24;8.38;;;2.10;;
28170;SDS011;15458;53.346;-1.688;2023-07-09T11:23:52;7.32;;;1.85;;
28170;SDS011;15458;53.346;-1.688;2023-07-09T11:31:37;8.13;;;1.92;;
28170;SDS011;15458;53.346;-1.688;2023-07-09T11:36:46;9.02;;;1.42;;
28170;SDS011;15458;53.346;-1.688;2023-07-09T11:45:17;6.75;;;1.60;;
28170;SDS011;15458;53.346;-1.688;2023-07-09T11:47:57;9.55;;;1.52;;
28170;SDS011;15458;53.346;-1.688;2023-07-09T11:50:46;8.68;;;1.73;;
28170;SDS011;15458;53.346;-1.688;2023-07-09T11:56:00;9.68;;;1.70;;
28170;SDS011;15458;53.346;-1.688;2023-07-09T11:58:26;8.90;;;1.73;;
28170;SDS011;15458;53.346;-1.688;2023-07-09T12:00:54;5.32;;;1.50;;
28170;SDS011;15458;53.346;-1.688;2023-07-09T12:03:32;6.95;;;1.60;;
28170;SDS011;15458;53.346;-1.688;2023-07-09T12:06:02;8.30;;;1.52;;
28170;SDS011;15458;53.346;-1.688;2023-07-09T12:08:37;12.55;;;2.20;;
28170;SDS011;15458;53.346;-1.688;2023-07-09T12:11:05;5.53;;;1.50;;
28170;SDS011;15458;53.346;-1.688;2023-07-09T12:13:42;8.45;;;1.50;;
28170;SDS011;15458;53.346;-1.688;2023-07-09T12:16:44;8.60;;;1.50;;
28170;SDS011;15458;53.346;-1.688;2023-07-09T12:19:03;11.05;;;1.80;;
28170;SDS011;15458;53.346;-1.688;2023-07-09T12:21:34;11.27;;;2.03;;
28170;SDS011;15458;53.346;-1.688;2023-07-09T12:24:03;6.72;;;1.58;;
28170;SDS011;15458;53.346;-1.688;2023-07-09T12:26:53;6.57;;;1.85;;
28170;SDS011;15458;53.346;-1.688;2023-07-09T12:29:23;4.50;;;1.63;;
28170;SDS011;15458;53.346;-1.688;2023-07-09T12:31:55;6.82;;;1.40;;
28170;SDS011;15458;53.346;-1.688;2023-07-09T12:34:30;5.93;;;2.00;;
28170;SDS011;15458;53.346;-1.688;2023-07-09T12:36:56;8.63;;;1.73;;
28170;SDS011;15458;53.346;-1.688;2023-07-09T12:39:24;5.72;;;1.20;;
28170;SDS011;15458;53.346;-1.688;2023-07-09T12:41:56;9.67;;;1.47;;
28170;SDS011;15458;53.346;-1.688;2023-07-09T12:44:29;5.53;;;1.30;;
28170;SDS011;15458;53.346;-1.688;2023-07-09T12:46:59;5.65;;;1.48;;
28170;SDS011;15458;53.346;-1.688;2023-07-09T12:49:28;4.20;;;1.27;;
28170;SDS011;15458;53.346;-1.688;2023-07-09T12:52:02;8.05;;;1.83;;
28170;SDS011;15458;53.346;-1.688;2023-07-09T12:54:34;7.72;;;1.48;;
28170;SDS011;15458;53.346;-1.688;2023-07-09T12:57:00;5.05;;;1.30;;
28170;SDS011;15458;53.346;-1.688;2023-07-09T12:59:38;6.32;;;1.60;;
28170;SDS011;15458;53.346;-1.688;2023-07-09T13:02:16;5.30;;;1.40;;
28170;SDS011;15458;53.346;-1.688;2023-07-09T13:04:42;10.32;;;1.85;;
28170;SDS011;15458;53.346;-1.688;2023-07-09T13:10:15;5.60;;;1.35;;
28170;SDS011;15458;53.346;-1.688;2023-07-09T13:12:44;8.68;;;1.65;;
28170;SDS011;15458;53.346;-1.688;2023-07-09T13:15:57;5.10;;;1.40;;
28170;SDS011;15458;53.346;-1.688;2023-07-09T13:18:06;8.95;;;1.35;;
28170;SDS011;15458;53.346;-1.688;2023-07-09T13:20:35;7.68;;;1.35;;
28170;SDS011;15458;53.346;-1.688;2023-07-09T13:23:08;10.27;;;1.65;;
28170;SDS011;15458;53.346;-1.688;2023-07-09T13:25:37;9.15;;;1.60;;
28170;SDS011;15458;53.346;-1.688;2023-07-09T13:28:04;12.30;;;1.77;;
28170;SDS011;15458;53.346;-1.688;2023-07-09T13:30:29;10.32;;;1.40;;
28170;SDS011;15458;53.346;-1.688;2023-07-09T13:32:56;4.15;;;1.13;;
28170;SDS011;15458;53.346;-1.688;2023-07-09T13:35:22;7.93;;;1.83;;
28170;SDS011;15458;53.346;-1.688;2023-07-09T13:37:48;5.22;;;1.40;;
28170;SDS011;15458;53.346;-1.688;2023-07-09T13:40:14;7.82;;;1.50;;
28170;SDS011;15458;53.346;-1.688;2023-07-09T13:42:41;10.30;;;1.40;;
28170;SDS011;15458;53.346;-1.688;2023-07-09T13:45:22;6.28;;;1.67;;
28170;SDS011;15458;53.346;-1.688;2023-07-09T13:47:50;5.45;;;1.52;;
28170;SDS011;15458;53.346;-1.688;2023-07-09T13:50:19;10.30;;;2.00;;
28170;SDS011;15458;53.346;-1.688;2023-07-09T13:52:46;6.60;;;1.30;;
28170;SDS011;15458;53.346;-1.688;2023-07-09T13:55:16;10.93;;;1.70;;
28170;SDS011;15458;53.346;-1.688;2023-07-09T13:57:49;4.13;;;1.73;;
28170;SDS011;15458;53.346;-1.688;2023-07-09T14:00:16;10.02;;;1.85;;
28170;SDS011;15458;53.346;-1.688;2023-07-09T14:02:42;8.75;;;1.30;;
28170;SDS011;15458;53.346;-1.688;2023-07-09T14:05:11;11.30;;;1.60;;
28170;SDS011;15458;53.346;-1.688;2023-07-09T14:07:39;8.10;;;1.85;;
28170;SDS011;15458;53.346;-1.688;2023-07-09T14:10:07;5.97;;;1.30;;
28170;SDS011;15458;53.346;-1.688;2023-07-09T14:12:42;4.95;;;1.25;;
28170;SDS011;15458;53.346;-1.688;2023-07-09T14:15:20;6.90;;;1.58;;
28170;SDS011;15458;53.346;-1.688;2023-07-09T14:17:46;3.88;;;1.15;;
28170;SDS011;15458;53.346;-1.688;2023-07-09T14:20:13;6.43;;;1.23;;
28170;SDS011;15458;53.346;-1.688;2023-07-09T14:22:40;7.25;;;1.55;;
28170;SDS011;15458;53.346;-1.688;2023-07-09T14:25:24;8.05;;;1.85;;
28170;SDS011;15458;53.346;-1.688;2023-07-09T14:27:54;5.82;;;1.67;;
28170;SDS011;15458;53.346;-1.688;2023-07-09T14:30:21;7.55;;;2.70;;
28170;SDS011;15458;53.346;-1.688;2023-07-09T14:32:49;2.22;;;1.17;;
28170;SDS011;15458;53.346;-1.688;2023-07-09T14:35:24;3.60;;;1.00;;
28170;SDS011;15458;53.346;-1.688;2023-07-09T14:37:52;5.65;;;1.25;;
28170;SDS011;15458;53.346;-1.688;2023-07-09T14:40:20;4.47;;;1.38;;
28170;SDS011;15458;53.346;-1.688;2023-07-09T14:42:47;7.97;;;1.17;;
28170;SDS011;15458;53.346;-1.688;2023-07-09T14:48:04;5.10;;;1.23;;
28170;SDS011;15458;53.346;-1.688;2023-07-09T14:50:41;4.13;;;1.08;;
28170;SDS011;15458;53.346;-1.688;2023-07-09T14:53:11;4.30;;;1.77;;
28170;SDS011;15458;53.346;-1.688;2023-07-09T14:55:47;5.93;;;1.52;;
28170;SDS011;15458;53.346;-1.688;2023-07-09T14:58:21;5.55;;;1.35;;
28170;SDS011;15458;53.346;-1.688;2023-07-09T15:00:51;6.00;;;1.52;;
28170;SDS011;15458;53.346;-1.688;2023-07-09T15:03:21;4.57;;;1.65;;
28170;SDS011;15458;53.346;-1.688;2023-07-09T15:05:49;4.75;;;1.40;;
28170;SDS011;15458;53.346;-1.688;2023-07-09T15:08:21;5.10;;;1.17;;
28170;SDS011;15458;53.346;-1.688;2023-07-09T15:10:52;4.55;;;1.10;;
28170;SDS011;15458;53.346;-1.688;2023-07-09T15:15:51;5.00;;;1.45;;
28170;SDS011;15458;53.346;-1.688;2023-07-09T15:18:19;5.20;;;1.15;;
28170;SDS011;15458;53.346;-1.688;2023-07-09T15:20:53;8.00;;;2.20;;
28170;SDS011;15458;53.346;-1.688;2023-07-09T15:23:21;4.50;;;1.17;;
28170;SDS011;15458;53.346;-1.688;2023-07-09T15:25:47;4.93;;;1.25;;
28170;SDS011;15458;53.346;-1.688;2023-07-09T15:28:14;6.90;;;1.52;;
28170;SDS011;15458;53.346;-1.688;2023-07-09T15:30:40;6.25;;;1.17;;
28170;SDS011;15458;53.346;-1.688;2023-07-09T15:33:09;4.55;;;1.00;;
28170;SDS011;15458;53.346;-1.688;2023-07-09T15:35:42;2.80;;;1.10;;
28170;SDS011;15458;53.346;-1.688;2023-07-09T15:40:56;5.07;;;1.30;;
28170;SDS011;15458;53.346;-1.688;2023-07-09T15:43:26;2.63;;;1.25;;
28170;SDS011;15458;53.346;-1.688;2023-07-09T15:48:25;4.47;;;1.35;;
28170;SDS011;15458;53.346;-1.688;2023-07-09T15:50:58;4.55;;;1.25;;